createdAt,value
2018-10-02T00:00:48.327Z,8.08
2018-10-02T00:03:17.414Z,8.05
2018-10-02T00:05:46.596Z,8.12
2018-10-02T00:08:15.694Z,8.09
2018-10-02T00:10:50.219Z,8.02
2018-10-02T00:14:23.702Z,7.94
2018-10-02T00:16:52.813Z,7.98
2018-10-02T00:19:21.888Z,7.99
2018-10-02T00:21:51.180Z,7.90
2018-10-02T00:24:20.567Z,7.96
2018-10-02T00:26:49.682Z,7.94
2018-10-02T00:29:18.772Z,7.83
2018-10-02T00:31:48.053Z,7.83
2018-10-02T00:34:17.088Z,7.73
2018-10-02T00:36:46.300Z,7.76
2018-10-02T00:39:15.496Z,7.86
2018-10-02T00:41:44.780Z,7.81
2018-10-02T00:44:13.848Z,7.83
2018-10-02T00:46:43.084Z,7.77
2018-10-02T00:49:15.178Z,7.77
2018-10-02T00:51:44.352Z,7.78
2018-10-02T00:54:13.430Z,7.81
2018-10-02T00:56:42.756Z,7.86
2018-10-02T00:59:11.958Z,7.75
2018-10-02T01:01:41.176Z,7.78
2018-10-02T01:04:10.316Z,7.78
2018-10-02T01:06:39.448Z,7.76
2018-10-02T01:09:10.411Z,7.64
2018-10-02T01:11:39.952Z,7.66
2018-10-02T01:14:09.172Z,7.70
2018-10-02T01:16:38.551Z,7.62
2018-10-02T01:19:07.792Z,7.50
2018-10-02T01:21:36.871Z,7.54
2018-10-02T01:24:06.049Z,7.58
2018-10-02T01:26:35.683Z,7.57
2018-10-02T01:29:04.848Z,7.54
2018-10-02T01:31:33.959Z,7.64
2018-10-02T01:34:03.057Z,7.59
2018-10-02T01:36:32.147Z,7.45
2018-10-02T01:39:01.320Z,7.59
2018-10-02T01:41:30.468Z,7.59
2018-10-02T01:43:59.613Z,7.59
2018-10-02T01:46:28.783Z,7.59
2018-10-02T01:48:57.968Z,7.53
2018-10-02T01:51:27.039Z,7.48
2018-10-02T01:53:56.144Z,7.47
2018-10-02T01:56:25.332Z,7.48
2018-10-02T01:58:54.422Z,7.48
2018-10-02T02:01:23.615Z,7.38
2018-10-02T02:03:52.731Z,7.35
2018-10-02T02:06:21.863Z,7.37
2018-10-02T02:08:50.968Z,7.38
2018-10-02T02:11:20.149Z,7.30
2018-10-02T02:13:49.287Z,7.22
2018-10-02T02:16:18.617Z,7.28
2018-10-02T02:18:47.698Z,7.24
2018-10-02T02:21:16.778Z,7.30
2018-10-02T02:23:45.964Z,7.26
2018-10-02T02:26:15.172Z,7.26
2018-10-02T02:28:44.325Z,6.94
2018-10-02T02:31:13.412Z,6.89
2018-10-02T02:33:42.588Z,6.81
2018-10-02T02:36:11.716Z,6.84
2018-10-02T02:38:40.800Z,6.93
2018-10-02T02:41:09.900Z,6.80
2018-10-02T02:43:39.048Z,6.62
2018-10-02T02:46:08.243Z,6.69
2018-10-02T02:48:42.670Z,6.64
2018-10-02T02:51:17.228Z,6.62
2018-10-02T02:53:46.663Z,6.74
2018-10-02T02:56:15.965Z,6.72
2018-10-02T02:58:45.055Z,6.69
2018-10-02T03:01:14.199Z,6.62
2018-10-02T03:03:43.255Z,6.81
2018-10-02T03:06:12.547Z,6.73
2018-10-02T03:08:41.775Z,6.84
2018-10-02T03:11:10.912Z,6.78
2018-10-02T03:13:40.138Z,6.75
2018-10-02T03:16:09.465Z,6.69
2018-10-02T03:18:38.563Z,6.72
2018-10-02T03:21:07.750Z,6.72
2018-10-02T03:23:36.835Z,6.70
2018-10-02T03:26:09.169Z,6.65
2018-10-02T03:28:38.505Z,6.64
2018-10-02T03:31:07.674Z,6.66
2018-10-02T03:33:36.853Z,6.78
2018-10-02T03:36:06.026Z,6.81
2018-10-02T03:38:35.185Z,6.80
2018-10-02T03:41:04.270Z,6.69
2018-10-02T03:43:33.375Z,6.72
2018-10-02T03:46:02.456Z,6.69
2018-10-02T03:48:31.541Z,6.71
2018-10-02T03:51:00.709Z,6.58
2018-10-02T03:53:29.917Z,6.56
2018-10-02T03:55:59.001Z,6.57
2018-10-02T03:58:28.196Z,6.64
2018-10-02T04:00:57.276Z,6.68
2018-10-02T04:03:26.555Z,6.66
2018-10-02T04:05:55.577Z,6.57
2018-10-02T04:08:24.742Z,6.62
2018-10-02T04:10:53.871Z,6.69
2018-10-02T04:13:23.180Z,6.77
2018-10-02T04:15:52.276Z,6.76
2018-10-02T04:18:21.424Z,6.63
2018-10-02T04:20:50.725Z,6.74
2018-10-02T04:23:19.783Z,6.58
2018-10-02T04:25:48.992Z,6.58
2018-10-02T04:28:18.210Z,6.65
2018-10-02T04:30:47.342Z,6.58
2018-10-02T04:33:16.539Z,6.62
2018-10-02T04:35:45.653Z,6.67
2018-10-02T04:38:14.732Z,6.75
2018-10-02T04:40:43.869Z,6.65
2018-10-02T04:43:13.052Z,6.59
2018-10-02T04:45:42.294Z,6.59
2018-10-02T04:48:11.455Z,6.49
2018-10-02T04:50:40.659Z,6.57
2018-10-02T04:53:09.822Z,6.48
2018-10-02T04:55:39.073Z,6.30
2018-10-02T04:58:08.105Z,6.34
2018-10-02T05:00:37.333Z,6.47
2018-10-02T05:03:06.505Z,6.43
2018-10-02T05:05:35.588Z,6.51
2018-10-02T05:08:04.847Z,6.41
2018-10-02T05:10:34.032Z,6.36
2018-10-02T05:13:03.169Z,6.40
2018-10-02T05:15:32.629Z,6.40
2018-10-02T05:18:01.829Z,6.32
2018-10-02T05:20:31.030Z,6.45
2018-10-02T05:23:00.225Z,6.31
2018-10-02T05:25:29.316Z,6.37
2018-10-02T05:27:58.508Z,6.25
2018-10-02T05:30:27.711Z,6.27
2018-10-02T05:32:57.941Z,6.21
2018-10-02T05:35:27.105Z,6.17
2018-10-02T05:37:56.525Z,6.25
2018-10-02T05:40:25.617Z,6.26
2018-10-02T05:42:54.781Z,6.43
2018-10-02T05:45:23.884Z,6.38
2018-10-02T05:47:53.188Z,6.32
2018-10-02T05:50:22.251Z,6.40
2018-10-02T05:52:51.344Z,6.47
2018-10-02T05:55:20.560Z,6.44
2018-10-02T05:57:49.760Z,6.28
2018-10-02T06:00:18.832Z,6.40
2018-10-02T06:02:47.950Z,6.31
2018-10-02T06:05:17.102Z,6.37
2018-10-02T06:07:46.200Z,6.20
2018-10-02T06:10:15.281Z,6.52
2018-10-02T06:12:44.575Z,6.37
2018-10-02T06:15:13.764Z,6.42
2018-10-02T06:17:42.945Z,6.51
2018-10-02T06:20:12.072Z,6.57
2018-10-02T06:22:41.288Z,6.66
2018-10-02T06:25:10.437Z,6.35
2018-10-02T06:27:39.772Z,6.53
2018-10-02T06:30:09.009Z,6.48
2018-10-02T06:32:38.115Z,6.66
2018-10-02T06:35:07.498Z,6.63
2018-10-02T06:37:36.880Z,6.61
2018-10-02T06:40:06.044Z,6.55
2018-10-02T06:42:35.263Z,6.57
2018-10-02T06:45:04.717Z,6.61
2018-10-02T06:47:33.769Z,6.44
2018-10-02T06:50:02.868Z,6.51
2018-10-02T06:52:32.291Z,6.56
2018-10-02T06:55:01.178Z,6.62
2018-10-02T06:57:30.367Z,6.78
2018-10-02T06:59:59.437Z,6.84
2018-10-02T07:02:28.532Z,6.87
2018-10-02T07:04:57.607Z,6.83
2018-10-02T07:07:26.721Z,6.96
2018-10-02T07:09:56.100Z,6.95
2018-10-02T07:12:25.275Z,7.01
2018-10-02T07:14:54.453Z,7.11
2018-10-02T07:17:23.523Z,7.04
2018-10-02T07:19:52.656Z,7.09
2018-10-02T07:22:21.912Z,7.02
2018-10-02T07:24:51.005Z,7.10
2018-10-02T07:27:20.222Z,7.25
2018-10-02T07:29:49.276Z,7.19
2018-10-02T07:32:18.501Z,7.24
2018-10-02T07:34:47.632Z,7.23
2018-10-02T07:37:16.790Z,7.36
2018-10-02T07:39:45.984Z,7.25
2018-10-02T07:42:15.142Z,7.27
2018-10-02T07:44:44.250Z,7.37
2018-10-02T07:47:13.260Z,7.49
2018-10-02T07:49:42.346Z,7.68
2018-10-02T07:52:11.715Z,7.58
2018-10-02T07:54:40.848Z,7.46
2018-10-02T07:57:10.036Z,7.52
2018-10-02T07:59:39.200Z,7.58
2018-10-02T08:02:08.455Z,7.54
2018-10-02T08:04:37.638Z,7.98
2018-10-02T08:07:06.856Z,7.84
2018-10-02T08:09:36.024Z,7.98
2018-10-02T08:12:05.137Z,7.97
2018-10-02T08:14:34.260Z,8.00
2018-10-02T08:17:03.405Z,7.96
2018-10-02T08:19:32.503Z,8.09
2018-10-02T08:22:01.606Z,8.05
2018-10-02T08:24:30.677Z,8.04
2018-10-02T08:26:59.797Z,8.11
2018-10-02T08:29:28.991Z,7.94
2018-10-02T08:31:58.177Z,8.07
2018-10-02T08:34:27.287Z,8.32
2018-10-02T08:36:56.377Z,8.29
2018-10-02T08:39:25.575Z,8.67
2018-10-02T08:41:54.779Z,8.68
2018-10-02T08:44:23.887Z,8.63
2018-10-02T08:46:52.941Z,9.00
2018-10-02T08:49:22.042Z,9.03
2018-10-02T08:51:51.549Z,9.36
2018-10-02T08:54:20.663Z,9.07
2018-10-02T08:56:49.769Z,9.05
2018-10-02T08:59:18.869Z,9.05
2018-10-02T09:01:48.020Z,9.04
2018-10-02T09:04:17.153Z,8.75
2018-10-02T09:06:46.313Z,8.93
2018-10-02T09:09:15.752Z,8.91
2018-10-02T09:11:44.927Z,9.13
2018-10-02T09:14:14.012Z,8.91
2018-10-02T09:16:43.307Z,9.16
2018-10-02T09:19:12.273Z,8.93
2018-10-02T09:21:42.148Z,8.95
2018-10-02T09:24:11.146Z,9.04
2018-10-02T09:26:40.531Z,9.07
2018-10-02T09:29:09.624Z,9.30
2018-10-02T09:31:44.090Z,9.29
2018-10-02T09:34:18.563Z,9.65
2018-10-02T09:36:53.217Z,9.72
2018-10-02T09:39:27.697Z,9.49
2018-10-02T09:42:02.176Z,9.61
2018-10-02T09:44:31.494Z,9.36
2018-10-02T09:47:00.591Z,9.41
2018-10-02T09:49:29.739Z,9.82
2018-10-02T09:51:58.837Z,9.80
2018-10-02T09:54:28.072Z,9.82
2018-10-02T09:56:57.217Z,9.92
2018-10-02T09:59:26.340Z,10.07
2018-10-02T10:02:00.938Z,10.11
2018-10-02T10:04:30.032Z,10.18
2018-10-02T10:06:59.212Z,9.65
2018-10-02T10:09:28.342Z,9.51
2018-10-02T10:11:57.548Z,9.62
2018-10-02T10:14:26.631Z,9.79
2018-10-02T10:16:55.770Z,9.77
2018-10-02T10:19:24.931Z,10.04
2018-10-02T10:21:54.033Z,10.08
2018-10-02T10:24:23.107Z,10.28
2018-10-02T10:26:52.206Z,10.25
2018-10-02T10:29:21.401Z,10.02
2018-10-02T10:31:50.560Z,9.90
2018-10-02T10:34:19.698Z,9.73
2018-10-02T10:36:48.813Z,9.97
2018-10-02T10:39:17.981Z,10.04
2018-10-02T10:41:47.062Z,9.81
2018-10-02T10:44:16.184Z,10.54
2018-10-02T10:46:45.345Z,10.30
2018-10-02T10:49:14.464Z,10.97
2018-10-02T10:51:43.584Z,10.84
2018-10-02T10:54:12.768Z,11.20
2018-10-02T10:56:41.868Z,11.17
2018-10-02T10:59:10.968Z,10.90
2018-10-02T11:01:40.108Z,10.77
2018-10-02T11:04:09.252Z,10.92
2018-10-02T11:06:38.338Z,11.45
2018-10-02T11:09:09.547Z,11.27
2018-10-02T11:11:38.778Z,10.95
2018-10-02T11:14:07.996Z,10.80
2018-10-02T11:16:37.173Z,11.05
2018-10-02T11:19:06.289Z,11.30
2018-10-02T11:21:35.444Z,11.08
2018-10-02T11:24:04.516Z,11.38
2018-10-02T11:26:33.700Z,11.17
2018-10-02T11:29:02.879Z,11.27
2018-10-02T11:31:32.050Z,11.66
2018-10-02T11:34:01.170Z,11.66
2018-10-02T11:36:30.424Z,12.35
2018-10-02T11:38:59.651Z,12.05
2018-10-02T11:41:28.775Z,12.54
2018-10-02T11:43:57.866Z,13.29
2018-10-02T11:46:27.058Z,13.40
2018-10-02T11:48:56.233Z,13.77
2018-10-02T11:51:25.437Z,13.33
2018-10-02T11:53:54.525Z,12.79
2018-10-02T11:56:23.634Z,12.84
2018-10-02T11:58:52.819Z,14.68
2018-10-02T12:01:22.116Z,15.60
2018-10-02T12:03:51.182Z,14.53
2018-10-02T12:06:20.241Z,16.32
2018-10-02T12:08:49.382Z,17.14
2018-10-02T12:11:18.961Z,16.44
2018-10-02T12:13:49.082Z,15.68
2018-10-02T12:16:18.235Z,14.43
2018-10-02T12:18:47.326Z,14.20
2018-10-02T12:21:16.420Z,14.37
2018-10-02T12:23:45.679Z,15.40
2018-10-02T12:26:14.844Z,13.07
2018-10-02T12:28:44.009Z,12.82
2018-10-02T12:31:13.181Z,12.84
2018-10-02T12:33:42.327Z,14.04
2018-10-02T12:36:11.605Z,16.83
2018-10-02T12:38:40.867Z,18.28
2018-10-02T12:41:09.913Z,16.71
2018-10-02T12:43:39.193Z,17.59
2018-10-02T12:46:08.393Z,16.12
2018-10-02T12:48:37.616Z,18.96
2018-10-02T12:51:06.805Z,15.58
2018-10-02T12:53:36.115Z,13.68
2018-10-02T12:56:05.188Z,13.12
2018-10-02T12:58:34.296Z,13.95
2018-10-02T13:01:03.382Z,13.13
2018-10-02T13:03:32.550Z,12.92
2018-10-02T13:06:01.632Z,12.76
2018-10-02T13:08:30.828Z,13.11
2018-10-02T13:10:59.959Z,13.40
2018-10-02T13:13:29.142Z,13.42
2018-10-02T13:15:58.304Z,14.38
2018-10-02T13:18:27.481Z,14.26
2018-10-02T13:20:56.553Z,14.33
2018-10-02T13:23:25.771Z,13.88
2018-10-02T13:25:54.856Z,14.57
2018-10-02T13:28:24.079Z,14.06
2018-10-02T13:30:53.191Z,13.59
2018-10-02T13:33:22.296Z,13.18
2018-10-02T13:35:51.397Z,12.99
2018-10-02T13:38:20.538Z,12.89
2018-10-02T13:40:49.669Z,12.65
2018-10-02T13:43:18.769Z,12.85
2018-10-02T13:45:47.837Z,12.37
2018-10-02T13:48:16.985Z,12.23
2018-10-02T13:50:46.172Z,12.15
2018-10-02T13:53:15.213Z,12.15
2018-10-02T13:55:44.348Z,12.21
2018-10-02T13:58:13.535Z,12.10
2018-10-02T14:00:42.709Z,12.03
2018-10-02T14:03:11.852Z,12.32
2018-10-02T14:05:40.984Z,12.33
2018-10-02T14:08:10.149Z,12.36
2018-10-02T14:10:39.266Z,12.36
2018-10-02T14:13:08.566Z,12.36
2018-10-02T14:15:37.721Z,12.48
2018-10-02T14:18:07.236Z,12.81
2018-10-02T14:20:36.311Z,12.73
2018-10-02T14:23:05.458Z,12.78
2018-10-02T14:25:34.523Z,13.02
2018-10-02T14:28:03.631Z,12.80
2018-10-02T14:30:32.696Z,12.39
2018-10-02T14:33:01.880Z,12.23
2018-10-02T14:35:30.979Z,12.44
2018-10-02T14:38:00.060Z,12.18
2018-10-02T14:40:29.174Z,12.12
2018-10-02T14:42:58.265Z,12.30
2018-10-02T14:45:27.358Z,11.96
2018-10-02T14:47:56.462Z,11.96
2018-10-02T14:50:25.611Z,11.96
2018-10-02T14:52:54.690Z,11.86
2018-10-02T14:55:23.765Z,11.94
2018-10-02T14:57:52.905Z,11.91
2018-10-02T15:00:21.979Z,12.07
2018-10-02T15:02:51.161Z,12.06
2018-10-02T15:05:20.553Z,12.06
2018-10-02T15:07:49.648Z,11.83
2018-10-02T15:10:18.785Z,11.82
2018-10-02T15:12:47.981Z,11.79
2018-10-02T15:15:17.068Z,11.64
2018-10-02T15:17:46.203Z,11.60
2018-10-02T15:20:15.269Z,11.62
2018-10-02T15:22:44.376Z,11.63
2018-10-02T15:25:13.476Z,11.53
2018-10-02T15:27:42.580Z,11.56
2018-10-02T15:30:11.748Z,11.51
2018-10-02T15:32:40.908Z,11.54
2018-10-02T15:35:10.078Z,11.62
2018-10-02T15:37:39.364Z,11.60
2018-10-02T15:40:08.491Z,11.55
2018-10-02T15:42:37.718Z,11.58
2018-10-02T15:45:06.944Z,11.54
2018-10-02T15:47:36.064Z,11.52
2018-10-02T15:50:05.166Z,11.46
2018-10-02T15:52:34.368Z,11.49
2018-10-02T15:55:03.543Z,11.49
2018-10-02T15:57:32.716Z,11.43
2018-10-02T16:00:01.939Z,11.47
2018-10-02T16:02:31.041Z,11.54
2018-10-02T16:05:00.216Z,11.43
2018-10-02T16:07:29.342Z,11.38
2018-10-02T16:09:58.520Z,11.38
2018-10-02T16:12:27.697Z,11.35
2018-10-02T16:14:56.752Z,11.26
2018-10-02T16:17:25.865Z,11.18
2018-10-02T16:19:54.999Z,11.13
2018-10-02T16:22:24.133Z,11.18
2018-10-02T16:24:53.338Z,11.16
2018-10-02T16:27:22.405Z,11.19
2018-10-02T16:29:51.569Z,11.20
2018-10-02T16:32:20.677Z,11.18
2018-10-02T16:34:49.901Z,11.17
2018-10-02T16:37:18.901Z,11.21
2018-10-02T16:39:47.968Z,11.19
2018-10-02T16:42:17.146Z,11.15
2018-10-02T16:44:46.248Z,11.14
2018-10-02T16:47:15.435Z,11.12
2018-10-02T16:49:44.437Z,11.16
2018-10-02T16:52:13.535Z,11.13
2018-10-02T16:54:42.636Z,11.13
2018-10-02T16:57:11.800Z,11.13
2018-10-02T16:59:41.005Z,11.12
2018-10-02T17:02:10.315Z,11.10
2018-10-02T17:04:39.411Z,11.09
2018-10-02T17:07:08.536Z,11.08
2018-10-02T17:09:37.623Z,11.12
2018-10-02T17:12:06.841Z,11.08
2018-10-02T17:14:35.929Z,11.06
2018-10-02T17:17:05.298Z,11.06
2018-10-02T17:19:34.393Z,11.09
2018-10-02T17:22:03.499Z,11.08
2018-10-02T17:24:32.687Z,11.06
2018-10-02T17:27:01.924Z,11.08
2018-10-02T17:29:31.097Z,11.07
2018-10-02T17:32:00.209Z,11.07
2018-10-02T17:34:29.375Z,11.03
2018-10-02T17:36:58.493Z,11.04
2018-10-02T17:39:27.673Z,11.07
2018-10-02T17:41:57.016Z,11.08
2018-10-02T17:44:26.093Z,11.01
2018-10-02T17:46:55.285Z,11.07
2018-10-02T17:49:24.713Z,11.07
2018-10-02T17:51:53.817Z,11.04
2018-10-02T17:54:22.971Z,11.02
2018-10-02T17:56:52.076Z,11.04
2018-10-02T17:59:21.254Z,11.02
2018-10-02T18:01:50.378Z,11.01
2018-10-02T18:04:19.463Z,11.03
2018-10-02T18:06:48.570Z,11.03
2018-10-02T18:09:17.658Z,11.04
2018-10-02T18:11:46.848Z,11.06
2018-10-02T18:14:15.928Z,11.05
2018-10-02T18:16:45.028Z,11.06
2018-10-02T18:19:14.128Z,11.04
2018-10-02T18:21:43.395Z,11.03
2018-10-02T18:24:12.472Z,11.04
2018-10-02T18:26:41.980Z,11.03
2018-10-02T18:29:11.116Z,11.00
2018-10-02T18:31:40.306Z,10.99
2018-10-02T18:34:09.419Z,10.99
2018-10-02T18:36:38.512Z,10.98
2018-10-02T18:39:07.854Z,10.97
2018-10-02T18:41:37.020Z,10.98
2018-10-02T18:44:06.195Z,10.93
2018-10-02T18:46:35.906Z,10.95
2018-10-02T18:49:05.342Z,10.96
2018-10-02T18:51:34.447Z,10.97
2018-10-02T18:54:03.624Z,10.95
2018-10-02T18:56:32.785Z,10.94
2018-10-02T18:59:01.904Z,10.92
2018-10-02T19:01:31.021Z,10.91
2018-10-02T19:04:00.150Z,10.87
2018-10-02T19:06:29.304Z,10.88
2018-10-02T19:09:03.702Z,10.89
2018-10-02T19:11:38.236Z,10.83
2018-10-02T19:14:07.323Z,10.76
2018-10-02T19:16:36.418Z,10.70
2018-10-02T19:19:06.377Z,10.68
2018-10-02T19:21:35.464Z,10.74
2018-10-02T19:24:04.554Z,10.73
2018-10-02T19:26:33.642Z,10.67
2018-10-02T19:29:02.744Z,10.65
2018-10-02T19:31:37.279Z,10.67
2018-10-02T19:34:06.533Z,10.62
2018-10-02T19:36:35.648Z,10.64
2018-10-02T19:39:07.981Z,10.62
2018-10-02T19:41:37.121Z,10.60
2018-10-02T19:44:06.233Z,10.60
2018-10-02T19:46:45.101Z,10.53
2018-10-02T19:49:14.169Z,10.55
2018-10-02T19:51:48.543Z,10.59
2018-10-02T19:54:17.624Z,10.53
2018-10-02T19:56:46.711Z,10.51
2018-10-02T19:59:15.938Z,10.46
2018-10-02T20:01:45.041Z,10.47
2018-10-02T20:04:14.155Z,10.50
2018-10-02T20:06:43.241Z,10.47
2018-10-02T20:09:12.680Z,10.43
2018-10-02T20:11:41.817Z,10.40
2018-10-02T20:14:11.625Z,10.48
2018-10-02T20:16:40.889Z,10.41
2018-10-02T20:19:09.945Z,10.36
2018-10-02T20:21:39.241Z,10.36
2018-10-02T20:24:08.420Z,10.35
2018-10-02T20:26:37.675Z,10.33
2018-10-02T20:29:06.916Z,10.35
2018-10-02T20:31:39.963Z,10.30
2018-10-02T20:34:09.030Z,10.32
2018-10-02T20:36:38.362Z,10.36
2018-10-02T20:39:09.174Z,10.35
2018-10-02T20:41:38.417Z,10.34
2018-10-02T20:44:07.673Z,10.27
2018-10-02T20:46:36.764Z,10.28
2018-10-02T20:49:05.921Z,10.26
2018-10-02T20:51:35.211Z,10.26
2018-10-02T20:54:04.412Z,10.27
2018-10-02T20:56:33.566Z,10.33
2018-10-02T20:59:02.732Z,10.32
2018-10-02T21:01:31.809Z,10.31
2018-10-02T21:04:00.926Z,10.29
2018-10-02T21:06:30.005Z,10.37
2018-10-02T21:08:59.262Z,10.38
2018-10-02T21:11:28.404Z,10.33
2018-10-02T21:13:57.576Z,10.38
2018-10-02T21:16:26.729Z,10.36
2018-10-02T21:18:55.868Z,10.36
2018-10-02T21:21:24.925Z,10.37
2018-10-02T21:23:54.024Z,10.47
2018-10-02T21:26:23.158Z,10.46
2018-10-02T21:28:52.260Z,10.46
2018-10-02T21:31:21.396Z,10.44
2018-10-02T21:33:50.542Z,10.45
2018-10-02T21:36:19.648Z,10.44
2018-10-02T21:38:48.766Z,10.39
2018-10-02T21:41:17.838Z,10.38
2018-10-02T21:43:47.248Z,10.40
2018-10-02T21:46:16.372Z,10.35
2018-10-02T21:48:45.445Z,10.31
2018-10-02T21:51:14.512Z,10.36
2018-10-02T21:53:43.644Z,10.24
2018-10-02T21:56:12.716Z,10.29
2018-10-02T21:58:41.825Z,10.22
2018-10-02T22:01:10.904Z,10.14
2018-10-02T22:03:40.749Z,10.12
2018-10-02T22:06:09.823Z,10.12
2018-10-02T22:08:38.962Z,10.11
2018-10-02T22:11:08.096Z,10.09
2018-10-02T22:13:37.256Z,10.04
2018-10-02T22:16:06.403Z,10.00
2018-10-02T22:18:35.517Z,9.99
2018-10-02T22:21:04.601Z,9.99
2018-10-02T22:23:33.697Z,10.01
2018-10-02T22:26:02.873Z,10.06
2018-10-02T22:28:32.074Z,10.02
2018-10-02T22:31:01.212Z,10.00
2018-10-02T22:33:30.300Z,9.96
2018-10-02T22:35:59.373Z,10.00
2018-10-02T22:38:28.454Z,10.01
2018-10-02T22:40:57.537Z,10.01
2018-10-02T22:43:26.652Z,10.00
2018-10-02T22:45:55.756Z,10.03
2018-10-02T22:48:24.939Z,10.15
2018-10-02T22:50:54.017Z,10.12
2018-10-02T22:53:23.432Z,10.10
2018-10-02T22:55:52.548Z,10.03
2018-10-02T22:58:21.625Z,10.03
2018-10-02T23:00:51.060Z,10.04
2018-10-02T23:03:20.143Z,10.05
2018-10-02T23:05:49.248Z,10.00
2018-10-02T23:08:18.424Z,10.00
2018-10-02T23:10:47.538Z,10.02
2018-10-02T23:13:16.706Z,10.03
2018-10-02T23:15:45.839Z,10.00
2018-10-02T23:18:15.009Z,10.05
2018-10-02T23:20:44.107Z,10.08
2018-10-02T23:23:13.197Z,10.06
2018-10-02T23:25:42.325Z,10.06
2018-10-02T23:28:11.491Z,10.11
2018-10-02T23:30:40.605Z,10.10
2018-10-02T23:33:09.709Z,10.11
2018-10-02T23:35:38.901Z,10.10
2018-10-02T23:38:08.060Z,10.10
2018-10-02T23:40:37.193Z,10.13
2018-10-02T23:43:06.580Z,10.09
2018-10-02T23:45:35.678Z,10.11
2018-10-02T23:48:04.860Z,10.13
2018-10-02T23:50:34.158Z,10.11
2018-10-02T23:53:03.378Z,10.14
2018-10-02T23:55:32.584Z,10.14
2018-10-02T23:58:01.648Z,10.11
